sensor_id;sensor_type;location;lat;lon;timestamp;P1;durP1;ratioP1;P2;durP2;ratioP2
14892;SDS011;7538;53.626;9.906;2023-06-26T00:00:02;13.25;;;12.25;;
14892;SDS011;7538;53.626;9.906;2023-06-26T00:02:30;12.90;;;11.80;;
14892;SDS011;7538;53.626;9.906;2023-06-26T00:04:58;13.80;;;12.65;;
14892;SDS011;7538;53.626;9.906;2023-06-26T00:07:27;13.90;;;12.80;;
14892;SDS011;7538;53.626;9.906;2023-06-26T00:09:56;14.43;;;13.02;;
14892;SDS011;7538;53.626;9.906;2023-06-26T00:12:23;13.05;;;11.88;;
14892;SDS011;7538;53.626;9.906;2023-06-26T00:14:50;14.10;;;12.93;;
14892;SDS011;7538;53.626;9.906;2023-06-26T00:17:17;13.75;;;12.65;;
14892;SDS011;7538;53.626;9.906;2023-06-26T00:19:44;12.55;;;11.50;;
14892;SDS011;7538;53.626;9.906;2023-06-26T00:22:11;13.30;;;12.20;;
14892;SDS011;7538;53.626;9.906;2023-06-26T00:24:38;12.43;;;11.43;;
14892;SDS011;7538;53.626;9.906;2023-06-26T00:27:06;13.20;;;12.10;;
14892;SDS011;7538;53.626;9.906;2023-06-26T00:29:33;13.52;;;12.25;;
14892;SDS011;7538;53.626;9.906;2023-06-26T00:32:00;13.20;;;12.02;;
14892;SDS011;7538;53.626;9.906;2023-06-26T00:34:27;12.82;;;11.77;;
14892;SDS011;7538;53.626;9.906;2023-06-26T00:36:54;14.38;;;13.15;;
14892;SDS011;7538;53.626;9.906;2023-06-26T00:39:21;12.95;;;11.85;;
14892;SDS011;7538;53.626;9.906;2023-06-26T00:41:50;12.65;;;11.65;;
14892;SDS011;7538;53.626;9.906;2023-06-26T00:44:20;13.25;;;12.15;;
14892;SDS011;7538;53.626;9.906;2023-06-26T00:46:47;14.40;;;13.15;;
14892;SDS011;7538;53.626;9.906;2023-06-26T00:49:14;13.05;;;12.05;;
14892;SDS011;7538;53.626;9.906;2023-06-26T00:51:41;14.07;;;12.80;;
14892;SDS011;7538;53.626;9.906;2023-06-26T00:54:09;14.30;;;13.10;;
14892;SDS011;7538;53.626;9.906;2023-06-26T00:56:36;14.02;;;12.93;;
14892;SDS011;7538;53.626;9.906;2023-06-26T00:59:03;13.68;;;12.55;;
14892;SDS011;7538;53.626;9.906;2023-06-26T01:01:32;14.02;;;12.82;;
14892;SDS011;7538;53.626;9.906;2023-06-26T01:03:58;14.77;;;13.52;;
14892;SDS011;7538;53.626;9.906;2023-06-26T01:06:25;14.07;;;12.98;;
14892;SDS011;7538;53.626;9.906;2023-06-26T01:08:57;15.35;;;13.90;;
14892;SDS011;7538;53.626;9.906;2023-06-26T01:11:24;14.60;;;13.30;;
14892;SDS011;7538;53.626;9.906;2023-06-26T01:13:51;15.02;;;13.65;;
14892;SDS011;7538;53.626;9.906;2023-06-26T01:16:19;14.90;;;13.57;;
14892;SDS011;7538;53.626;9.906;2023-06-26T01:18:49;15.10;;;13.75;;
14892;SDS011;7538;53.626;9.906;2023-06-26T01:21:16;15.38;;;13.98;;
14892;SDS011;7538;53.626;9.906;2023-06-26T01:23:47;14.75;;;13.45;;
14892;SDS011;7538;53.626;9.906;2023-06-26T01:26:26;13.77;;;12.68;;
14892;SDS011;7538;53.626;9.906;2023-06-26T01:28:55;16.40;;;14.77;;
14892;SDS011;7538;53.626;9.906;2023-06-26T01:31:24;15.45;;;13.85;;
14892;SDS011;7538;53.626;9.906;2023-06-26T01:33:53;15.00;;;13.70;;
14892;SDS011;7538;53.626;9.906;2023-06-26T01:36:21;15.18;;;13.88;;
14892;SDS011;7538;53.626;9.906;2023-06-26T01:38:48;14.38;;;13.10;;
14892;SDS011;7538;53.626;9.906;2023-06-26T01:41:16;15.63;;;14.23;;
14892;SDS011;7538;53.626;9.906;2023-06-26T01:43:46;14.85;;;13.65;;
14892;SDS011;7538;53.626;9.906;2023-06-26T01:46:27;14.45;;;13.15;;
14892;SDS011;7538;53.626;9.906;2023-06-26T01:49:03;14.38;;;13.18;;
14892;SDS011;7538;53.626;9.906;2023-06-26T01:51:34;16.17;;;14.75;;
14892;SDS011;7538;53.626;9.906;2023-06-26T01:54:04;15.70;;;14.30;;
14892;SDS011;7538;53.626;9.906;2023-06-26T01:56:37;16.10;;;14.65;;
14892;SDS011;7538;53.626;9.906;2023-06-26T01:59:07;15.45;;;14.05;;
14892;SDS011;7538;53.626;9.906;2023-06-26T02:01:35;15.32;;;13.93;;
14892;SDS011;7538;53.626;9.906;2023-06-26T02:04:02;14.18;;;12.88;;
14892;SDS011;7538;53.626;9.906;2023-06-26T02:06:29;15.15;;;13.88;;
14892;SDS011;7538;53.626;9.906;2023-06-26T02:08:55;15.73;;;14.23;;
14892;SDS011;7538;53.626;9.906;2023-06-26T02:11:22;15.32;;;13.77;;
14892;SDS011;7538;53.626;9.906;2023-06-26T02:13:49;14.80;;;13.52;;
14892;SDS011;7538;53.626;9.906;2023-06-26T02:16:17;15.82;;;14.32;;
14892;SDS011;7538;53.626;9.906;2023-06-26T02:18:44;14.95;;;13.45;;
14892;SDS011;7538;53.626;9.906;2023-06-26T02:21:12;15.82;;;14.35;;
14892;SDS011;7538;53.626;9.906;2023-06-26T02:23:39;15.75;;;14.35;;
14892;SDS011;7538;53.626;9.906;2023-06-26T02:26:06;15.40;;;13.95;;
14892;SDS011;7538;53.626;9.906;2023-06-26T02:28:33;17.00;;;15.55;;
14892;SDS011;7538;53.626;9.906;2023-06-26T02:31:00;14.43;;;13.23;;
14892;SDS011;7538;53.626;9.906;2023-06-26T02:33:29;15.50;;;14.20;;
14892;SDS011;7538;53.626;9.906;2023-06-26T02:35:55;15.32;;;14.02;;
14892;SDS011;7538;53.626;9.906;2023-06-26T02:38:22;16.20;;;14.90;;
14892;SDS011;7538;53.626;9.906;2023-06-26T02:40:49;16.77;;;15.30;;
14892;SDS011;7538;53.626;9.906;2023-06-26T02:43:16;15.45;;;14.15;;
14892;SDS011;7538;53.626;9.906;2023-06-26T02:45:43;15.20;;;13.68;;
14892;SDS011;7538;53.626;9.906;2023-06-26T02:48:10;16.70;;;15.20;;
14892;SDS011;7538;53.626;9.906;2023-06-26T02:50:38;16.25;;;14.95;;
14892;SDS011;7538;53.626;9.906;2023-06-26T02:53:05;14.68;;;13.48;;
14892;SDS011;7538;53.626;9.906;2023-06-26T02:55:32;14.30;;;13.20;;
14892;SDS011;7538;53.626;9.906;2023-06-26T02:58:00;15.20;;;13.98;;
14892;SDS011;7538;53.626;9.906;2023-06-26T03:00:26;15.05;;;13.75;;
14892;SDS011;7538;53.626;9.906;2023-06-26T03:02:55;14.13;;;13.02;;
14892;SDS011;7538;53.626;9.906;2023-06-26T03:05:22;14.75;;;13.48;;
14892;SDS011;7538;53.626;9.906;2023-06-26T03:07:50;15.98;;;14.63;;
14892;SDS011;7538;53.626;9.906;2023-06-26T03:10:17;16.95;;;15.35;;
14892;SDS011;7538;53.626;9.906;2023-06-26T03:12:44;15.18;;;13.80;;
14892;SDS011;7538;53.626;9.906;2023-06-26T03:15:11;16.33;;;14.80;;
14892;SDS011;7538;53.626;9.906;2023-06-26T03:17:37;14.75;;;13.43;;
14892;SDS011;7538;53.626;9.906;2023-06-26T03:20:05;15.13;;;13.85;;
14892;SDS011;7538;53.626;9.906;2023-06-26T03:22:34;15.13;;;13.80;;
14892;SDS011;7538;53.626;9.906;2023-06-26T03:25:02;15.18;;;13.70;;
14892;SDS011;7538;53.626;9.906;2023-06-26T03:27:30;15.38;;;13.98;;
14892;SDS011;7538;53.626;9.906;2023-06-26T03:29:58;15.52;;;13.98;;
14892;SDS011;7538;53.626;9.906;2023-06-26T03:32:24;15.43;;;13.93;;
14892;SDS011;7538;53.626;9.906;2023-06-26T03:34:51;14.75;;;13.23;;
14892;SDS011;7538;53.626;9.906;2023-06-26T03:37:19;13.90;;;12.48;;
14892;SDS011;7538;53.626;9.906;2023-06-26T03:39:45;14.43;;;13.13;;
14892;SDS011;7538;53.626;9.906;2023-06-26T03:42:14;13.95;;;12.48;;
14892;SDS011;7538;53.626;9.906;2023-06-26T03:44:41;14.45;;;13.05;;
14892;SDS011;7538;53.626;9.906;2023-06-26T03:47:08;13.98;;;12.73;;
14892;SDS011;7538;53.626;9.906;2023-06-26T03:49:34;13.52;;;12.23;;
14892;SDS011;7538;53.626;9.906;2023-06-26T03:52:01;14.05;;;12.90;;
14892;SDS011;7538;53.626;9.906;2023-06-26T03:54:28;14.68;;;13.23;;
14892;SDS011;7538;53.626;9.906;2023-06-26T03:56:55;14.45;;;13.05;;
14892;SDS011;7538;53.626;9.906;2023-06-26T03:59:23;13.40;;;12.20;;
14892;SDS011;7538;53.626;9.906;2023-06-26T04:01:50;13.43;;;12.05;;
14892;SDS011;7538;53.626;9.906;2023-06-26T04:04:17;13.93;;;12.68;;
14892;SDS011;7538;53.626;9.906;2023-06-26T04:06:44;14.88;;;13.57;;
14892;SDS011;7538;53.626;9.906;2023-06-26T04:09:11;12.77;;;11.63;;
14892;SDS011;7538;53.626;9.906;2023-06-26T04:11:38;13.55;;;12.35;;
14892;SDS011;7538;53.626;9.906;2023-06-26T04:14:05;12.55;;;11.55;;
14892;SDS011;7538;53.626;9.906;2023-06-26T04:16:33;13.27;;;12.07;;
14892;SDS011;7538;53.626;9.906;2023-06-26T04:19:00;12.68;;;11.52;;
14892;SDS011;7538;53.626;9.906;2023-06-26T04:21:27;13.55;;;12.35;;
14892;SDS011;7538;53.626;9.906;2023-06-26T04:23:54;12.70;;;11.65;;
14892;SDS011;7538;53.626;9.906;2023-06-26T04:26:21;13.02;;;11.90;;
14892;SDS011;7538;53.626;9.906;2023-06-26T04:28:48;13.25;;;12.05;;
14892;SDS011;7538;53.626;9.906;2023-06-26T04:31:15;12.80;;;11.65;;
14892;SDS011;7538;53.626;9.906;2023-06-26T04:33:43;13.45;;;12.07;;
14892;SDS011;7538;53.626;9.906;2023-06-26T04:36:10;12.35;;;11.18;;
14892;SDS011;7538;53.626;9.906;2023-06-26T04:38:37;12.50;;;11.43;;
14892;SDS011;7538;53.626;9.906;2023-06-26T04:41:04;12.82;;;11.65;;
14892;SDS011;7538;53.626;9.906;2023-06-26T04:43:30;12.70;;;11.43;;
14892;SDS011;7538;53.626;9.906;2023-06-26T04:45:57;12.50;;;11.35;;
14892;SDS011;7538;53.626;9.906;2023-06-26T04:48:24;11.52;;;10.52;;
14892;SDS011;7538;53.626;9.906;2023-06-26T04:50:53;11.75;;;10.57;;
14892;SDS011;7538;53.626;9.906;2023-06-26T04:53:21;12.27;;;11.18;;
14892;SDS011;7538;53.626;9.906;2023-06-26T04:55:48;11.65;;;10.55;;
14892;SDS011;7538;53.626;9.906;2023-06-26T04:58:15;12.15;;;10.95;;
14892;SDS011;7538;53.626;9.906;2023-06-26T05:00:42;11.80;;;10.70;;
14892;SDS011;7538;53.626;9.906;2023-06-26T05:03:09;11.63;;;10.20;;
14892;SDS011;7538;53.626;9.906;2023-06-26T05:05:36;11.50;;;10.43;;
14892;SDS011;7538;53.626;9.906;2023-06-26T05:08:18;10.43;;;9.45;;
14892;SDS011;7538;53.626;9.906;2023-06-26T05:10:47;10.25;;;9.25;;
14892;SDS011;7538;53.626;9.906;2023-06-26T05:13:14;9.77;;;8.95;;
14892;SDS011;7538;53.626;9.906;2023-06-26T05:15:42;10.52;;;9.57;;
14892;SDS011;7538;53.626;9.906;2023-06-26T05:18:09;10.05;;;9.05;;
14892;SDS011;7538;53.626;9.906;2023-06-26T05:20:36;9.90;;;8.88;;
14892;SDS011;7538;53.626;9.906;2023-06-26T05:23:04;9.77;;;8.85;;
14892;SDS011;7538;53.626;9.906;2023-06-26T05:25:32;10.43;;;8.68;;
14892;SDS011;7538;53.626;9.906;2023-06-26T05:28:00;10.23;;;9.23;;
14892;SDS011;7538;53.626;9.906;2023-06-26T05:30:30;9.45;;;8.43;;
14892;SDS011;7538;53.626;9.906;2023-06-26T05:32:59;9.20;;;8.18;;
14892;SDS011;7538;53.626;9.906;2023-06-26T05:35:28;8.82;;;8.02;;
14892;SDS011;7538;53.626;9.906;2023-06-26T05:37:56;8.68;;;7.78;;
14892;SDS011;7538;53.626;9.906;2023-06-26T05:40:23;9.25;;;8.43;;
14892;SDS011;7538;53.626;9.906;2023-06-26T05:42:52;8.27;;;7.47;;
14892;SDS011;7538;53.626;9.906;2023-06-26T05:45:19;9.13;;;8.30;;
14892;SDS011;7538;53.626;9.906;2023-06-26T05:47:46;8.73;;;7.93;;
14892;SDS011;7538;53.626;9.906;2023-06-26T05:50:17;8.43;;;7.65;;
14892;SDS011;7538;53.626;9.906;2023-06-26T05:52:45;9.07;;;7.97;;
14892;SDS011;7538;53.626;9.906;2023-06-26T05:55:12;8.82;;;7.97;;
14892;SDS011;7538;53.626;9.906;2023-06-26T05:57:40;8.55;;;7.85;;
14892;SDS011;7538;53.626;9.906;2023-06-26T06:00:09;9.18;;;7.70;;
14892;SDS011;7538;53.626;9.906;2023-06-26T06:02:36;8.15;;;7.35;;
14892;SDS011;7538;53.626;9.906;2023-06-26T06:05:04;8.02;;;7.38;;
14892;SDS011;7538;53.626;9.906;2023-06-26T06:07:31;8.20;;;7.45;;
14892;SDS011;7538;53.626;9.906;2023-06-26T06:09:59;7.95;;;7.15;;
14892;SDS011;7538;53.626;9.906;2023-06-26T06:12:26;7.93;;;7.40;;
14892;SDS011;7538;53.626;9.906;2023-06-26T06:14:52;8.13;;;7.53;;
14892;SDS011;7538;53.626;9.906;2023-06-26T06:17:21;8.15;;;7.55;;
14892;SDS011;7538;53.626;9.906;2023-06-26T06:19:48;8.93;;;8.13;;
14892;SDS011;7538;53.626;9.906;2023-06-26T06:22:15;8.30;;;7.60;;
14892;SDS011;7538;53.626;9.906;2023-06-26T06:24:42;8.40;;;7.70;;
14892;SDS011;7538;53.626;9.906;2023-06-26T06:27:10;8.32;;;7.55;;
14892;SDS011;7538;53.626;9.906;2023-06-26T06:29:36;8.02;;;7.22;;
14892;SDS011;7538;53.626;9.906;2023-06-26T06:32:03;7.93;;;7.22;;
14892;SDS011;7538;53.626;9.906;2023-06-26T06:34:32;9.07;;;8.30;;
14892;SDS011;7538;53.626;9.906;2023-06-26T06:36:59;8.50;;;7.70;;
14892;SDS011;7538;53.626;9.906;2023-06-26T06:39:25;7.55;;;6.95;;
14892;SDS011;7538;53.626;9.906;2023-06-26T06:41:52;8.57;;;7.82;;
14892;SDS011;7538;53.626;9.906;2023-06-26T06:44:19;9.05;;;8.13;;
14892;SDS011;7538;53.626;9.906;2023-06-26T06:46:47;7.95;;;7.25;;
14892;SDS011;7538;53.626;9.906;2023-06-26T06:49:14;8.88;;;8.05;;
14892;SDS011;7538;53.626;9.906;2023-06-26T06:51:42;7.97;;;7.28;;
14892;SDS011;7538;53.626;9.906;2023-06-26T06:54:09;8.05;;;7.25;;
14892;SDS011;7538;53.626;9.906;2023-06-26T06:56:36;7.10;;;6.60;;
14892;SDS011;7538;53.626;9.906;2023-06-26T06:59:02;8.45;;;7.60;;
14892;SDS011;7538;53.626;9.906;2023-06-26T07:01:29;8.32;;;7.57;;
14892;SDS011;7538;53.626;9.906;2023-06-26T07:03:56;8.43;;;7.63;;
14892;SDS011;7538;53.626;9.906;2023-06-26T07:06:23;8.10;;;7.47;;
14892;SDS011;7538;53.626;9.906;2023-06-26T07:08:51;7.88;;;7.28;;
14892;SDS011;7538;53.626;9.906;2023-06-26T07:11:18;7.90;;;7.22;;
14892;SDS011;7538;53.626;9.906;2023-06-26T07:13:45;8.45;;;7.65;;
14892;SDS011;7538;53.626;9.906;2023-06-26T07:16:12;8.38;;;7.55;;
14892;SDS011;7538;53.626;9.906;2023-06-26T07:18:40;7.88;;;7.28;;
14892;SDS011;7538;53.626;9.906;2023-06-26T07:21:07;7.38;;;6.78;;
14892;SDS011;7538;53.626;9.906;2023-06-26T07:23:33;8.43;;;7.35;;
14892;SDS011;7538;53.626;9.906;2023-06-26T07:26:02;7.68;;;6.97;;
14892;SDS011;7538;53.626;9.906;2023-06-26T07:28:29;7.90;;;7.25;;
14892;SDS011;7538;53.626;9.906;2023-06-26T07:30:56;7.22;;;6.57;;
14892;SDS011;7538;53.626;9.906;2023-06-26T07:33:23;9.48;;;6.95;;
14892;SDS011;7538;53.626;9.906;2023-06-26T07:35:49;8.95;;;8.15;;
14892;SDS011;7538;53.626;9.906;2023-06-26T07:38:16;7.88;;;7.13;;
14892;SDS011;7538;53.626;9.906;2023-06-26T07:40:43;7.15;;;6.60;;
14892;SDS011;7538;53.626;9.906;2023-06-26T07:43:11;8.75;;;8.05;;
14892;SDS011;7538;53.626;9.906;2023-06-26T07:45:38;8.60;;;7.80;;
14892;SDS011;7538;53.626;9.906;2023-06-26T07:48:05;8.10;;;7.40;;
14892;SDS011;7538;53.626;9.906;2023-06-26T07:50:34;7.88;;;7.15;;
14892;SDS011;7538;53.626;9.906;2023-06-26T07:53:01;8.43;;;7.63;;
14892;SDS011;7538;53.626;9.906;2023-06-26T07:55:27;7.95;;;7.25;;
14892;SDS011;7538;53.626;9.906;2023-06-26T07:57:55;8.48;;;7.47;;
14892;SDS011;7538;53.626;9.906;2023-06-26T08:00:23;7.57;;;6.97;;
14892;SDS011;7538;53.626;9.906;2023-06-26T08:02:51;7.90;;;7.10;;
14892;SDS011;7538;53.626;9.906;2023-06-26T08:05:18;9.18;;;6.93;;
14892;SDS011;7538;53.626;9.906;2023-06-26T08:07:45;8.57;;;7.82;;
14892;SDS011;7538;53.626;9.906;2023-06-26T08:10:11;7.15;;;6.65;;
14892;SDS011;7538;53.626;9.906;2023-06-26T08:12:38;7.90;;;7.25;;
14892;SDS011;7538;53.626;9.906;2023-06-26T08:15:07;7.03;;;6.43;;
14892;SDS011;7538;53.626;9.906;2023-06-26T08:17:36;7.47;;;6.88;;
14892;SDS011;7538;53.626;9.906;2023-06-26T08:20:04;7.38;;;6.68;;
14892;SDS011;7538;53.626;9.906;2023-06-26T08:22:33;7.30;;;6.70;;
14892;SDS011;7538;53.626;9.906;2023-06-26T08:25:00;7.65;;;7.03;;
14892;SDS011;7538;53.626;9.906;2023-06-26T08:27:28;7.20;;;6.50;;
14892;SDS011;7538;53.626;9.906;2023-06-26T08:29:55;7.75;;;7.15;;
14892;SDS011;7538;53.626;9.906;2023-06-26T08:32:22;7.15;;;6.65;;
14892;SDS011;7538;53.626;9.906;2023-06-26T08:34:50;8.32;;;7.55;;
14892;SDS011;7538;53.626;9.906;2023-06-26T08:37:17;8.00;;;7.30;;
14892;SDS011;7538;53.626;9.906;2023-06-26T08:39:45;7.72;;;7.07;;
14892;SDS011;7538;53.626;9.906;2023-06-26T08:42:11;7.78;;;7.07;;
14892;SDS011;7538;53.626;9.906;2023-06-26T08:44:38;8.00;;;7.45;;
14892;SDS011;7538;53.626;9.906;2023-06-26T08:47:05;8.35;;;7.65;;
14892;SDS011;7538;53.626;9.906;2023-06-26T08:49:34;8.38;;;7.72;;
14892;SDS011;7538;53.626;9.906;2023-06-26T08:52:11;7.80;;;7.22;;
14892;SDS011;7538;53.626;9.906;2023-06-26T08:54:51;8.85;;;8.02;;
14892;SDS011;7538;53.626;9.906;2023-06-26T08:57:22;9.40;;;8.45;;
14892;SDS011;7538;53.626;9.906;2023-06-26T08:59:51;9.13;;;8.43;;
14892;SDS011;7538;53.626;9.906;2023-06-26T09:02:18;8.90;;;8.20;;
14892;SDS011;7538;53.626;9.906;2023-06-26T09:04:47;9.35;;;8.57;;
14892;SDS011;7538;53.626;9.906;2023-06-26T09:07:15;9.90;;;8.90;;
14892;SDS011;7538;53.626;9.906;2023-06-26T09:09:42;9.80;;;9.00;;
14892;SDS011;7538;53.626;9.906;2023-06-26T09:12:09;10.98;;;9.73;;
14892;SDS011;7538;53.626;9.906;2023-06-26T09:14:36;11.25;;;10.35;;
14892;SDS011;7538;53.626;9.906;2023-06-26T09:17:03;10.13;;;9.32;;
14892;SDS011;7538;53.626;9.906;2023-06-26T09:19:32;10.43;;;9.38;;
14892;SDS011;7538;53.626;9.906;2023-06-26T09:22:01;11.57;;;10.57;;
14892;SDS011;7538;53.626;9.906;2023-06-26T09:24:29;9.77;;;8.90;;
14892;SDS011;7538;53.626;9.906;2023-06-26T09:26:56;12.55;;;10.50;;
14892;SDS011;7538;53.626;9.906;2023-06-26T09:29:23;10.60;;;9.75;;
14892;SDS011;7538;53.626;9.906;2023-06-26T09:31:52;13.88;;;10.48;;
14892;SDS011;7538;53.626;9.906;2023-06-26T09:34:18;10.63;;;9.63;;
14892;SDS011;7538;53.626;9.906;2023-06-26T09:36:46;13.85;;;11.73;;
14892;SDS011;7538;53.626;9.906;2023-06-26T09:39:14;12.05;;;10.95;;
14892;SDS011;7538;53.626;9.906;2023-06-26T09:41:42;14.00;;;12.00;;
14892;SDS011;7538;53.626;9.906;2023-06-26T09:44:10;12.13;;;10.93;;
14892;SDS011;7538;53.626;9.906;2023-06-26T09:46:38;15.13;;;11.25;;
14892;SDS011;7538;53.626;9.906;2023-06-26T09:49:06;12.00;;;10.75;;
14892;SDS011;7538;53.626;9.906;2023-06-26T09:51:34;12.32;;;11.10;;
14892;SDS011;7538;53.626;9.906;2023-06-26T09:54:03;14.00;;;10.52;;
14892;SDS011;7538;53.626;9.906;2023-06-26T09:56:31;14.05;;;11.13;;
14892;SDS011;7538;53.626;9.906;2023-06-26T09:59:01;13.73;;;12.15;;
14892;SDS011;7538;53.626;9.906;2023-06-26T10:01:30;13.82;;;12.40;;
14892;SDS011;7538;53.626;9.906;2023-06-26T10:03:58;14.10;;;11.98;;
14892;SDS011;7538;53.626;9.906;2023-06-26T10:06:27;13.70;;;12.27;;
14892;SDS011;7538;53.626;9.906;2023-06-26T10:09:02;18.70;;;13.60;;
14892;SDS011;7538;53.626;9.906;2023-06-26T10:11:31;14.98;;;13.57;;
14892;SDS011;7538;53.626;9.906;2023-06-26T10:14:04;14.15;;;12.85;;
14892;SDS011;7538;53.626;9.906;2023-06-26T10:16:35;15.65;;;14.00;;
14892;SDS011;7538;53.626;9.906;2023-06-26T10:19:05;16.80;;;15.18;;
14892;SDS011;7538;53.626;9.906;2023-06-26T10:21:34;17.95;;;16.17;;
14892;SDS011;7538;53.626;9.906;2023-06-26T10:24:04;17.15;;;13.85;;
14892;SDS011;7538;53.626;9.906;2023-06-26T10:26:33;13.73;;;12.00;;
14892;SDS011;7538;53.626;9.906;2023-06-26T10:29:05;12.82;;;11.23;;
14892;SDS011;7538;53.626;9.906;2023-06-26T10:31:34;11.63;;;9.75;;
14892;SDS011;7538;53.626;9.906;2023-06-26T10:34:03;10.20;;;8.60;;
14892;SDS011;7538;53.626;9.906;2023-06-26T10:36:31;8.57;;;7.78;;
14892;SDS011;7538;53.626;9.906;2023-06-26T10:39:01;8.90;;;7.80;;
14892;SDS011;7538;53.626;9.906;2023-06-26T10:41:36;8.63;;;7.60;;
14892;SDS011;7538;53.626;9.906;2023-06-26T10:44:07;8.90;;;7.95;;
14892;SDS011;7538;53.626;9.906;2023-06-26T10:46:48;8.73;;;7.80;;
14892;SDS011;7538;53.626;9.906;2023-06-26T10:49:17;10.93;;;9.82;;
14892;SDS011;7538;53.626;9.906;2023-06-26T10:51:47;9.02;;;8.15;;
14892;SDS011;7538;53.626;9.906;2023-06-26T10:54:16;8.02;;;7.28;;
14892;SDS011;7538;53.626;9.906;2023-06-26T10:56:44;10.73;;;7.85;;
14892;SDS011;7538;53.626;9.906;2023-06-26T10:59:17;8.52;;;7.63;;
14892;SDS011;7538;53.626;9.906;2023-06-26T11:01:45;12.90;;;8.50;;
14892;SDS011;7538;53.626;9.906;2023-06-26T11:04:21;12.35;;;9.07;;
14892;SDS011;7538;53.626;9.906;2023-06-26T11:07:14;11.35;;;9.20;;
14892;SDS011;7538;53.626;9.906;2023-06-26T11:09:53;10.45;;;7.95;;
14892;SDS011;7538;53.626;9.906;2023-06-26T11:12:33;9.18;;;7.75;;
14892;SDS011;7538;53.626;9.906;2023-06-26T11:15:03;12.23;;;7.30;;
14892;SDS011;7538;53.626;9.906;2023-06-26T11:17:33;9.20;;;6.68;;
14892;SDS011;7538;53.626;9.906;2023-06-26T11:20:01;11.48;;;7.07;;
14892;SDS011;7538;53.626;9.906;2023-06-26T11:22:29;11.05;;;6.45;;
14892;SDS011;7538;53.626;9.906;2023-06-26T11:24:59;13.25;;;6.63;;
14892;SDS011;7538;53.626;9.906;2023-06-26T11:27:30;9.80;;;5.75;;
14892;SDS011;7538;53.626;9.906;2023-06-26T11:29:57;8.80;;;5.70;;
14892;SDS011;7538;53.626;9.906;2023-06-26T11:32:27;12.00;;;5.63;;
14892;SDS011;7538;53.626;9.906;2023-06-26T11:34:54;8.93;;;5.20;;
14892;SDS011;7538;53.626;9.906;2023-06-26T11:37:21;10.75;;;4.97;;
14892;SDS011;7538;53.626;9.906;2023-06-26T11:39:48;12.43;;;5.38;;
14892;SDS011;7538;53.626;9.906;2023-06-26T11:42:15;10.70;;;5.13;;
14892;SDS011;7538;53.626;9.906;2023-06-26T11:44:43;10.68;;;5.13;;
14892;SDS011;7538;53.626;9.906;2023-06-26T11:47:14;8.43;;;4.43;;
14892;SDS011;7538;53.626;9.906;2023-06-26T11:49:46;11.43;;;3.83;;
14892;SDS011;7538;53.626;9.906;2023-06-26T11:52:14;6.18;;;3.25;;
14892;SDS011;7538;53.626;9.906;2023-06-26T11:54:42;10.10;;;3.20;;
14892;SDS011;7538;53.626;9.906;2023-06-26T11:57:13;7.00;;;3.22;;
14892;SDS011;7538;53.626;9.906;2023-06-26T11:59:41;7.13;;;3.00;;
14892;SDS011;7538;53.626;9.906;2023-06-26T12:02:09;6.72;;;2.80;;
14892;SDS011;7538;53.626;9.906;2023-06-26T12:04:37;8.52;;;3.30;;
14892;SDS011;7538;53.626;9.906;2023-06-26T12:07:07;7.57;;;3.55;;
14892;SDS011;7538;53.626;9.906;2023-06-26T12:09:38;8.50;;;3.58;;
14892;SDS011;7538;53.626;9.906;2023-06-26T12:12:06;10.02;;;3.55;;
14892;SDS011;7538;53.626;9.906;2023-06-26T12:14:35;8.55;;;3.17;;
14892;SDS011;7538;53.626;9.906;2023-06-26T12:17:03;9.45;;;3.53;;
14892;SDS011;7538;53.626;9.906;2023-06-26T12:19:33;9.13;;;3.60;;
14892;SDS011;7538;53.626;9.906;2023-06-26T12:22:05;11.27;;;3.25;;
14892;SDS011;7538;53.626;9.906;2023-06-26T12:24:35;7.93;;;3.22;;
14892;SDS011;7538;53.626;9.906;2023-06-26T12:27:07;7.18;;;3.45;;
14892;SDS011;7538;53.626;9.906;2023-06-26T12:29:34;10.10;;;3.40;;
14892;SDS011;7538;53.626;9.906;2023-06-26T12:32:01;9.45;;;3.53;;
14892;SDS011;7538;53.626;9.906;2023-06-26T12:34:29;10.15;;;3.97;;
14892;SDS011;7538;53.626;9.906;2023-06-26T12:36:59;5.30;;;2.90;;
14892;SDS011;7538;53.626;9.906;2023-06-26T12:39:29;8.57;;;3.10;;
14892;SDS011;7538;53.626;9.906;2023-06-26T12:42:12;6.95;;;3.10;;
14892;SDS011;7538;53.626;9.906;2023-06-26T12:44:40;7.78;;;2.80;;
14892;SDS011;7538;53.626;9.906;2023-06-26T12:47:07;8.65;;;2.83;;
14892;SDS011;7538;53.626;9.906;2023-06-26T12:49:35;6.47;;;2.60;;
14892;SDS011;7538;53.626;9.906;2023-06-26T12:52:05;4.03;;;2.70;;
14892;SDS011;7538;53.626;9.906;2023-06-26T12:54:34;6.38;;;2.60;;
14892;SDS011;7538;53.626;9.906;2023-06-26T12:57:02;7.78;;;3.10;;
14892;SDS011;7538;53.626;9.906;2023-06-26T12:59:30;7.57;;;3.05;;
14892;SDS011;7538;53.626;9.906;2023-06-26T13:01:57;4.63;;;2.67;;
14892;SDS011;7538;53.626;9.906;2023-06-26T13:04:23;7.57;;;2.70;;
14892;SDS011;7538;53.626;9.906;2023-06-26T13:06:50;8.05;;;2.78;;
14892;SDS011;7538;53.626;9.906;2023-06-26T13:09:19;6.03;;;2.83;;
14892;SDS011;7538;53.626;9.906;2023-06-26T13:11:47;6.43;;;2.40;;
14892;SDS011;7538;53.626;9.906;2023-06-26T13:14:14;6.65;;;2.47;;
14892;SDS011;7538;53.626;9.906;2023-06-26T13:16:41;9.23;;;3.03;;
14892;SDS011;7538;53.626;9.906;2023-06-26T13:19:08;5.82;;;2.58;;
14892;SDS011;7538;53.626;9.906;2023-06-26T13:21:35;5.90;;;2.70;;
14892;SDS011;7538;53.626;9.906;2023-06-26T13:24:02;5.50;;;2.28;;
14892;SDS011;7538;53.626;9.906;2023-06-26T13:26:30;6.60;;;2.63;;
14892;SDS011;7538;53.626;9.906;2023-06-26T13:28:59;4.18;;;2.42;;
14892;SDS011;7538;53.626;9.906;2023-06-26T13:31:26;5.55;;;2.95;;
14892;SDS011;7538;53.626;9.906;2023-06-26T13:33:53;7.57;;;3.20;;
14892;SDS011;7538;53.626;9.906;2023-06-26T13:36:20;5.22;;;2.50;;
14892;SDS011;7538;53.626;9.906;2023-06-26T13:38:47;6.10;;;2.50;;
14892;SDS011;7538;53.626;9.906;2023-06-26T13:41:20;5.88;;;2.40;;
14892;SDS011;7538;53.626;9.906;2023-06-26T13:43:47;7.15;;;2.67;;
14892;SDS011;7538;53.626;9.906;2023-06-26T13:46:15;5.03;;;2.55;;
14892;SDS011;7538;53.626;9.906;2023-06-26T13:48:43;5.95;;;2.08;;
14892;SDS011;7538;53.626;9.906;2023-06-26T13:51:10;4.05;;;2.30;;
14892;SDS011;7538;53.626;9.906;2023-06-26T13:53:36;4.25;;;1.83;;
14892;SDS011;7538;53.626;9.906;2023-06-26T13:56:03;4.22;;;1.98;;
14892;SDS011;7538;53.626;9.906;2023-06-26T13:58:31;4.15;;;2.55;;
14892;SDS011;7538;53.626;9.906;2023-06-26T14:00:58;4.35;;;2.30;;
14892;SDS011;7538;53.626;9.906;2023-06-26T14:03:27;2.88;;;2.00;;
14892;SDS011;7538;53.626;9.906;2023-06-26T14:05:54;5.05;;;2.20;;
14892;SDS011;7538;53.626;9.906;2023-06-26T14:08:21;6.65;;;2.28;;
14892;SDS011;7538;53.626;9.906;2023-06-26T14:10:48;4.55;;;2.08;;
14892;SDS011;7538;53.626;9.906;2023-06-26T14:13:15;3.38;;;2.22;;
14892;SDS011;7538;53.626;9.906;2023-06-26T14:15:42;5.07;;;2.22;;
14892;SDS011;7538;53.626;9.906;2023-06-26T14:18:09;4.40;;;2.38;;
14892;SDS011;7538;53.626;9.906;2023-06-26T14:20:37;2.97;;;2.03;;
14892;SDS011;7538;53.626;9.906;2023-06-26T14:23:04;4.18;;;2.20;;
14892;SDS011;7538;53.626;9.906;2023-06-26T14:25:31;4.32;;;2.13;;
14892;SDS011;7538;53.626;9.906;2023-06-26T14:27:58;3.15;;;2.42;;
14892;SDS011;7538;53.626;9.906;2023-06-26T14:30:25;2.72;;;2.00;;
14892;SDS011;7538;53.626;9.906;2023-06-26T14:32:52;3.92;;;2.03;;
14892;SDS011;7538;53.626;9.906;2023-06-26T14:35:19;4.22;;;2.40;;
14892;SDS011;7538;53.626;9.906;2023-06-26T14:37:47;4.93;;;1.90;;
14892;SDS011;7538;53.626;9.906;2023-06-26T14:40:14;3.78;;;1.88;;
14892;SDS011;7538;53.626;9.906;2023-06-26T14:42:41;6.82;;;2.20;;
14892;SDS011;7538;53.626;9.906;2023-06-26T14:45:10;4.93;;;2.60;;
14892;SDS011;7538;53.626;9.906;2023-06-26T14:47:37;3.92;;;2.50;;
14892;SDS011;7538;53.626;9.906;2023-06-26T14:50:04;4.95;;;2.47;;
14892;SDS011;7538;53.626;9.906;2023-06-26T14:52:32;5.65;;;2.65;;